sensor_id;sensor_type;location;lat;lon;timestamp;temperature;humidity
64987;DHT22;67903;52.108;9.358;2023-03-13T00:01:10;8.00;78.40
64987;DHT22;67903;52.108;9.358;2023-03-13T00:03:37;8.00;78.60
64987;DHT22;67903;52.108;9.358;2023-03-13T00:06:04;8.00;79.00
64987;DHT22;67903;52.108;9.358;2023-03-13T00:08:31;8.00;78.50
64987;DHT22;67903;52.108;9.358;2023-03-13T00:11:05;8.00;78.70
64987;DHT22;67903;52.108;9.358;2023-03-13T00:13:32;7.90;78.60
64987;DHT22;67903;52.108;9.358;2023-03-13T00:16:05;7.80;79.10
64987;DHT22;67903;52.108;9.358;2023-03-13T00:18:32;7.80;79.20
64987;DHT22;67903;52.108;9.358;2023-03-13T00:21:06;7.90;79.20
64987;DHT22;67903;52.108;9.358;2023-03-13T00:23:34;7.80;79.30
64987;DHT22;67903;52.108;9.358;2023-03-13T00:26:07;7.80;79.80
64987;DHT22;67903;52.108;9.358;2023-03-13T00:28:35;7.70;79.70
64987;DHT22;67903;52.108;9.358;2023-03-13T00:33:39;7.50;80.30
64987;DHT22;67903;52.108;9.358;2023-03-13T00:36:08;7.50;80.90
64987;DHT22;67903;52.108;9.358;2023-03-13T00:38:35;7.40;80.80
64987;DHT22;67903;52.108;9.358;2023-03-13T00:41:08;7.40;81.00
64987;DHT22;67903;52.108;9.358;2023-03-13T00:43:39;7.40;81.20
64987;DHT22;67903;52.108;9.358;2023-03-13T00:46:06;7.30;81.50
64987;DHT22;67903;52.108;9.358;2023-03-13T00:48:34;7.20;81.60
64987;DHT22;67903;52.108;9.358;2023-03-13T00:51:02;7.20;81.90
64987;DHT22;67903;52.108;9.358;2023-03-13T00:53:29;7.20;81.70
64987;DHT22;67903;52.108;9.358;2023-03-13T00:56:01;7.20;81.40
64987;DHT22;67903;52.108;9.358;2023-03-13T00:58:30;7.20;81.60
64987;DHT22;67903;52.108;9.358;2023-03-13T01:01:04;7.20;81.40
64987;DHT22;67903;52.108;9.358;2023-03-13T01:03:31;7.30;81.20
64987;DHT22;67903;52.108;9.358;2023-03-13T01:06:02;7.20;81.70
64987;DHT22;67903;52.108;9.358;2023-03-13T01:08:29;7.20;81.70
64987;DHT22;67903;52.108;9.358;2023-03-13T01:11:01;7.20;82.20
64987;DHT22;67903;52.108;9.358;2023-03-13T01:13:29;7.10;82.30
64987;DHT22;67903;52.108;9.358;2023-03-13T01:15:56;7.20;82.20
64987;DHT22;67903;52.108;9.358;2023-03-13T01:18:23;7.20;81.80
64987;DHT22;67903;52.108;9.358;2023-03-13T01:20:51;7.20;81.90
64987;DHT22;67903;52.108;9.358;2023-03-13T01:23:18;7.20;81.90
64987;DHT22;67903;52.108;9.358;2023-03-13T01:25:46;7.20;81.40
64987;DHT22;67903;52.108;9.358;2023-03-13T01:28:13;7.30;80.90
64987;DHT22;67903;52.108;9.358;2023-03-13T01:30:40;7.40;80.40
64987;DHT22;67903;52.108;9.358;2023-03-13T01:33:08;7.40;80.30
64987;DHT22;67903;52.108;9.358;2023-03-13T01:35:35;7.50;80.40
64987;DHT22;67903;52.108;9.358;2023-03-13T01:38:01;7.50;80.10
64987;DHT22;67903;52.108;9.358;2023-03-13T01:40:28;7.60;79.70
64987;DHT22;67903;52.108;9.358;2023-03-13T01:42:57;7.80;78.70
64987;DHT22;67903;52.108;9.358;2023-03-13T01:45:52;7.80;78.80
64987;DHT22;67903;52.108;9.358;2023-03-13T01:48:28;7.80;78.90
64987;DHT22;67903;52.108;9.358;2023-03-13T01:50:59;7.90;78.80
64987;DHT22;67903;52.108;9.358;2023-03-13T01:53:30;7.80;79.10
64987;DHT22;67903;52.108;9.358;2023-03-13T01:55:59;7.80;79.50
64987;DHT22;67903;52.108;9.358;2023-03-13T01:58:28;7.70;80.20
64987;DHT22;67903;52.108;9.358;2023-03-13T02:00:57;7.60;80.50
64987;DHT22;67903;52.108;9.358;2023-03-13T02:03:25;7.50;80.70
64987;DHT22;67903;52.108;9.358;2023-03-13T02:05:54;7.60;80.60
64987;DHT22;67903;52.108;9.358;2023-03-13T02:08:31;7.50;80.70
64987;DHT22;67903;52.108;9.358;2023-03-13T02:11:08;7.50;81.00
64987;DHT22;67903;52.108;9.358;2023-03-13T02:13:36;7.50;81.20
64987;DHT22;67903;52.108;9.358;2023-03-13T02:16:03;7.50;81.30
64987;DHT22;67903;52.108;9.358;2023-03-13T02:18:30;7.40;81.50
64987;DHT22;67903;52.108;9.358;2023-03-13T02:21:05;7.40;81.70
64987;DHT22;67903;52.108;9.358;2023-03-13T02:23:41;7.40;81.40
64987;DHT22;67903;52.108;9.358;2023-03-13T02:26:10;7.40;81.60
64987;DHT22;67903;52.108;9.358;2023-03-13T02:28:37;7.40;81.70
64987;DHT22;67903;52.108;9.358;2023-03-13T02:31:09;7.40;81.80
64987;DHT22;67903;52.108;9.358;2023-03-13T02:33:39;7.40;82.10
64987;DHT22;67903;52.108;9.358;2023-03-13T02:36:08;7.20;82.70
64987;DHT22;67903;52.108;9.358;2023-03-13T02:38:43;7.20;82.90
64987;DHT22;67903;52.108;9.358;2023-03-13T02:41:12;7.20;83.20
64987;DHT22;67903;52.108;9.358;2023-03-13T02:43:39;7.20;83.20
64987;DHT22;67903;52.108;9.358;2023-03-13T02:46:10;7.20;83.70
64987;DHT22;67903;52.108;9.358;2023-03-13T02:48:43;7.20;83.90
64987;DHT22;67903;52.108;9.358;2023-03-13T02:51:36;7.10;84.20
64987;DHT22;67903;52.108;9.358;2023-03-13T02:54:15;7.10;84.50
64987;DHT22;67903;52.108;9.358;2023-03-13T02:56:45;7.10;84.40
64987;DHT22;67903;52.108;9.358;2023-03-13T02:59:13;7.10;84.40
64987;DHT22;67903;52.108;9.358;2023-03-13T03:01:42;7.10;84.50
64987;DHT22;67903;52.108;9.358;2023-03-13T03:04:09;7.20;84.70
64987;DHT22;67903;52.108;9.358;2023-03-13T03:06:36;7.30;84.30
64987;DHT22;67903;52.108;9.358;2023-03-13T03:09:04;7.40;83.90
64987;DHT22;67903;52.108;9.358;2023-03-13T03:11:34;7.40;83.80
64987;DHT22;67903;52.108;9.358;2023-03-13T03:14:05;7.40;83.70
64987;DHT22;67903;52.108;9.358;2023-03-13T03:16:37;7.30;83.80
64987;DHT22;67903;52.108;9.358;2023-03-13T03:19:05;7.30;84.00
64987;DHT22;67903;52.108;9.358;2023-03-13T03:21:35;7.20;84.10
64987;DHT22;67903;52.108;9.358;2023-03-13T03:24:02;7.20;84.30
64987;DHT22;67903;52.108;9.358;2023-03-13T03:26:29;7.20;84.50
64987;DHT22;67903;52.108;9.358;2023-03-13T03:28:56;7.10;84.80
64987;DHT22;67903;52.108;9.358;2023-03-13T03:31:23;7.10;85.00
64987;DHT22;67903;52.108;9.358;2023-03-13T03:33:50;7.10;85.10
64987;DHT22;67903;52.108;9.358;2023-03-13T03:36:20;7.00;85.10
64987;DHT22;67903;52.108;9.358;2023-03-13T03:38:48;7.00;85.00
64987;DHT22;67903;52.108;9.358;2023-03-13T03:41:19;7.00;85.00
64987;DHT22;67903;52.108;9.358;2023-03-13T03:43:46;7.10;85.00
64987;DHT22;67903;52.108;9.358;2023-03-13T03:46:16;7.10;85.00
64987;DHT22;67903;52.108;9.358;2023-03-13T03:48:43;7.00;85.10
64987;DHT22;67903;52.108;9.358;2023-03-13T03:51:11;7.10;85.40
64987;DHT22;67903;52.108;9.358;2023-03-13T03:53:41;7.00;85.40
64987;DHT22;67903;52.108;9.358;2023-03-13T03:56:08;7.00;85.60
64987;DHT22;67903;52.108;9.358;2023-03-13T03:58:39;7.00;85.70
64987;DHT22;67903;52.108;9.358;2023-03-13T04:01:26;7.00;85.90
64987;DHT22;67903;52.108;9.358;2023-03-13T04:03:52;7.00;86.20
64987;DHT22;67903;52.108;9.358;2023-03-13T04:06:19;7.00;86.60
64987;DHT22;67903;52.108;9.358;2023-03-13T04:08:46;7.00;87.10
64987;DHT22;67903;52.108;9.358;2023-03-13T04:11:16;7.00;87.50
64987;DHT22;67903;52.108;9.358;2023-03-13T04:13:48;7.00;87.90
64987;DHT22;67903;52.108;9.358;2023-03-13T04:16:15;7.00;88.40
64987;DHT22;67903;52.108;9.358;2023-03-13T04:18:44;7.00;88.70
64987;DHT22;67903;52.108;9.358;2023-03-13T04:21:11;7.00;89.20
64987;DHT22;67903;52.108;9.358;2023-03-13T04:23:48;7.00;89.40
64987;DHT22;67903;52.108;9.358;2023-03-13T04:26:16;7.00;89.80
64987;DHT22;67903;52.108;9.358;2023-03-13T04:28:44;7.10;90.00
64987;DHT22;67903;52.108;9.358;2023-03-13T04:31:15;7.20;90.00
64987;DHT22;67903;52.108;9.358;2023-03-13T04:33:45;7.20;90.00
64987;DHT22;67903;52.108;9.358;2023-03-13T04:36:18;7.20;90.20
64987;DHT22;67903;52.108;9.358;2023-03-13T04:39:09;7.20;90.20
64987;DHT22;67903;52.108;9.358;2023-03-13T04:41:54;7.20;90.40
64987;DHT22;67903;52.108;9.358;2023-03-13T04:44:44;7.20;90.60
64987;DHT22;67903;52.108;9.358;2023-03-13T04:47:38;7.40;90.60
64987;DHT22;67903;52.108;9.358;2023-03-13T04:50:23;7.40;90.60
64987;DHT22;67903;52.108;9.358;2023-03-13T04:53:08;7.40;90.70
64987;DHT22;67903;52.108;9.358;2023-03-13T04:55:45;7.40;90.80
64987;DHT22;67903;52.108;9.358;2023-03-13T04:58:31;7.40;91.00
64987;DHT22;67903;52.108;9.358;2023-03-13T05:01:13;7.50;90.80
64987;DHT22;67903;52.108;9.358;2023-03-13T05:03:53;7.40;90.90
64987;DHT22;67903;52.108;9.358;2023-03-13T05:06:43;7.40;90.90
64987;DHT22;67903;52.108;9.358;2023-03-13T05:09:23;7.40;91.00
64987;DHT22;67903;52.108;9.358;2023-03-13T05:11:59;7.40;91.20
64987;DHT22;67903;52.108;9.358;2023-03-13T05:14:46;7.40;91.30
64987;DHT22;67903;52.108;9.358;2023-03-13T05:17:25;7.40;91.20
64987;DHT22;67903;52.108;9.358;2023-03-13T05:20:07;7.40;91.40
64987;DHT22;67903;52.108;9.358;2023-03-13T05:23:00;7.50;91.10
64987;DHT22;67903;52.108;9.358;2023-03-13T05:25:48;7.50;90.80
64987;DHT22;67903;52.108;9.358;2023-03-13T05:28:24;7.50;90.70
64987;DHT22;67903;52.108;9.358;2023-03-13T05:31:10;7.50;90.50
64987;DHT22;67903;52.108;9.358;2023-03-13T05:33:51;7.60;90.10
64987;DHT22;67903;52.108;9.358;2023-03-13T05:36:37;7.60;90.10
64987;DHT22;67903;52.108;9.358;2023-03-13T05:39:17;7.50;90.40
64987;DHT22;67903;52.108;9.358;2023-03-13T05:41:47;7.50;90.50
64987;DHT22;67903;52.108;9.358;2023-03-13T05:44:33;7.60;90.80
64987;DHT22;67903;52.108;9.358;2023-03-13T05:47:21;7.60;90.90
64987;DHT22;67903;52.108;9.358;2023-03-13T05:49:58;7.60;91.10
64987;DHT22;67903;52.108;9.358;2023-03-13T05:52:51;7.70;90.70
64987;DHT22;67903;52.108;9.358;2023-03-13T05:55:30;7.80;90.50
64987;DHT22;67903;52.108;9.358;2023-03-13T05:58:15;7.70;90.60
64987;DHT22;67903;52.108;9.358;2023-03-13T06:01:10;7.70;90.70
64987;DHT22;67903;52.108;9.358;2023-03-13T06:03:47;7.60;91.00
64987;DHT22;67903;52.108;9.358;2023-03-13T06:06:16;7.60;91.30
64987;DHT22;67903;52.108;9.358;2023-03-13T06:08:47;7.80;91.20
64987;DHT22;67903;52.108;9.358;2023-03-13T06:11:14;7.70;91.40
64987;DHT22;67903;52.108;9.358;2023-03-13T06:13:41;7.80;91.60
64987;DHT22;67903;52.108;9.358;2023-03-13T06:16:18;7.80;91.90
64987;DHT22;67903;52.108;9.358;2023-03-13T06:18:47;7.80;91.80
64987;DHT22;67903;52.108;9.358;2023-03-13T06:21:14;7.80;91.70
64987;DHT22;67903;52.108;9.358;2023-03-13T06:23:41;7.80;91.90
64987;DHT22;67903;52.108;9.358;2023-03-13T06:26:07;7.70;92.00
64987;DHT22;67903;52.108;9.358;2023-03-13T06:28:34;7.70;92.20
64987;DHT22;67903;52.108;9.358;2023-03-13T06:31:03;7.80;92.20
64987;DHT22;67903;52.108;9.358;2023-03-13T06:33:31;7.80;92.20
64987;DHT22;67903;52.108;9.358;2023-03-13T06:36:00;7.80;92.10
64987;DHT22;67903;52.108;9.358;2023-03-13T06:38:27;7.80;92.10
64987;DHT22;67903;52.108;9.358;2023-03-13T06:40:54;7.80;92.10
64987;DHT22;67903;52.108;9.358;2023-03-13T06:43:21;8.00;92.10
64987;DHT22;67903;52.108;9.358;2023-03-13T06:45:48;8.00;91.80
64987;DHT22;67903;52.108;9.358;2023-03-13T06:48:15;8.10;91.80
64987;DHT22;67903;52.108;9.358;2023-03-13T06:50:42;8.30;91.20
64987;DHT22;67903;52.108;9.358;2023-03-13T06:53:17;8.40;91.00
64987;DHT22;67903;52.108;9.358;2023-03-13T06:55:45;8.60;90.70
64987;DHT22;67903;52.108;9.358;2023-03-13T06:58:12;8.60;90.50
64987;DHT22;67903;52.108;9.358;2023-03-13T07:00:56;8.60;90.50
64987;DHT22;67903;52.108;9.358;2023-03-13T07:03:23;8.80;90.40
64987;DHT22;67903;52.108;9.358;2023-03-13T07:05:57;8.90;90.00
64987;DHT22;67903;52.108;9.358;2023-03-13T07:08:25;9.00;89.80
64987;DHT22;67903;52.108;9.358;2023-03-13T07:10:56;9.20;89.80
64987;DHT22;67903;52.108;9.358;2023-03-13T07:13:23;9.30;89.50
64987;DHT22;67903;52.108;9.358;2023-03-13T07:15:50;9.40;89.00
64987;DHT22;67903;52.108;9.358;2023-03-13T07:18:17;9.40;89.20
64987;DHT22;67903;52.108;9.358;2023-03-13T07:20:44;9.40;89.20
64987;DHT22;67903;52.108;9.358;2023-03-13T07:23:11;9.50;89.20
64987;DHT22;67903;52.108;9.358;2023-03-13T07:25:37;9.40;89.40
64987;DHT22;67903;52.108;9.358;2023-03-13T07:28:04;9.50;89.40
64987;DHT22;67903;52.108;9.358;2023-03-13T07:30:31;9.40;89.70
64987;DHT22;67903;52.108;9.358;2023-03-13T07:32:57;9.40;90.00
64987;DHT22;67903;52.108;9.358;2023-03-13T07:35:24;9.40;90.40
64987;DHT22;67903;52.108;9.358;2023-03-13T07:37:51;9.50;90.00
64987;DHT22;67903;52.108;9.358;2023-03-13T07:40:18;9.60;89.80
64987;DHT22;67903;52.108;9.358;2023-03-13T07:42:45;9.70;89.30
64987;DHT22;67903;52.108;9.358;2023-03-13T07:45:12;9.70;89.60
64987;DHT22;67903;52.108;9.358;2023-03-13T07:47:39;9.80;89.60
64987;DHT22;67903;52.108;9.358;2023-03-13T07:50:06;9.80;89.80
64987;DHT22;67903;52.108;9.358;2023-03-13T07:52:33;9.90;89.70
64987;DHT22;67903;52.108;9.358;2023-03-13T07:55:00;9.90;89.90
64987;DHT22;67903;52.108;9.358;2023-03-13T07:57:27;9.80;89.80
64987;DHT22;67903;52.108;9.358;2023-03-13T07:59:54;9.80;90.40
64987;DHT22;67903;52.108;9.358;2023-03-13T08:02:20;9.80;90.70
64987;DHT22;67903;52.108;9.358;2023-03-13T08:04:51;9.80;90.50
64987;DHT22;67903;52.108;9.358;2023-03-13T08:07:17;10.00;90.20
64987;DHT22;67903;52.108;9.358;2023-03-13T08:09:44;10.20;89.60
64987;DHT22;67903;52.108;9.358;2023-03-13T08:12:11;10.30;88.90
64987;DHT22;67903;52.108;9.358;2023-03-13T08:14:38;10.30;88.50
64987;DHT22;67903;52.108;9.358;2023-03-13T08:17:05;10.40;88.50
64987;DHT22;67903;52.108;9.358;2023-03-13T08:19:31;10.40;88.20
64987;DHT22;67903;52.108;9.358;2023-03-13T08:21:58;10.50;88.10
64987;DHT22;67903;52.108;9.358;2023-03-13T08:24:25;10.70;87.50
64987;DHT22;67903;52.108;9.358;2023-03-13T08:26:52;10.70;87.30
64987;DHT22;67903;52.108;9.358;2023-03-13T08:29:18;10.80;86.70
64987;DHT22;67903;52.108;9.358;2023-03-13T08:31:47;10.80;86.70
64987;DHT22;67903;52.108;9.358;2023-03-13T08:34:15;10.80;86.80
64987;DHT22;67903;52.108;9.358;2023-03-13T08:36:42;10.80;86.40
64987;DHT22;67903;52.108;9.358;2023-03-13T08:39:17;10.90;86.20
64987;DHT22;67903;52.108;9.358;2023-03-13T08:41:44;11.00;85.30
64987;DHT22;67903;52.108;9.358;2023-03-13T08:44:13;11.10;84.80
64987;DHT22;67903;52.108;9.358;2023-03-13T08:46:41;11.30;84.30
64987;DHT22;67903;52.108;9.358;2023-03-13T08:49:09;11.40;84.00
64987;DHT22;67903;52.108;9.358;2023-03-13T08:51:37;11.40;83.80
64987;DHT22;67903;52.108;9.358;2023-03-13T08:54:05;11.50;83.30
64987;DHT22;67903;52.108;9.358;2023-03-13T08:56:32;11.50;83.70
64987;DHT22;67903;52.108;9.358;2023-03-13T08:59:02;11.50;83.20
64987;DHT22;67903;52.108;9.358;2023-03-13T09:01:31;11.70;82.70
64987;DHT22;67903;52.108;9.358;2023-03-13T09:03:58;11.70;82.50
64987;DHT22;67903;52.108;9.358;2023-03-13T09:06:29;11.70;82.50
64987;DHT22;67903;52.108;9.358;2023-03-13T09:08:56;11.70;82.10
64987;DHT22;67903;52.108;9.358;2023-03-13T09:11:23;11.90;81.50
64987;DHT22;67903;52.108;9.358;2023-03-13T09:13:51;11.90;81.80
64987;DHT22;67903;52.108;9.358;2023-03-13T09:16:20;11.90;81.80
64987;DHT22;67903;52.108;9.358;2023-03-13T09:18:49;11.90;81.70
64987;DHT22;67903;52.108;9.358;2023-03-13T09:21:22;12.10;80.80
64987;DHT22;67903;52.108;9.358;2023-03-13T09:23:50;12.10;80.80
64987;DHT22;67903;52.108;9.358;2023-03-13T09:26:18;12.10;80.20
64987;DHT22;67903;52.108;9.358;2023-03-13T09:28:48;12.20;80.50
64987;DHT22;67903;52.108;9.358;2023-03-13T09:31:24;12.20;80.20
64987;DHT22;67903;52.108;9.358;2023-03-13T09:33:51;12.20;79.80
64987;DHT22;67903;52.108;9.358;2023-03-13T09:36:19;12.20;80.10
64987;DHT22;67903;52.108;9.358;2023-03-13T09:38:48;12.30;79.40
64987;DHT22;67903;52.108;9.358;2023-03-13T09:44:14;12.30;79.30
64987;DHT22;67903;52.108;9.358;2023-03-13T09:47:09;12.40;78.80
64987;DHT22;67903;52.108;9.358;2023-03-13T09:49:43;12.50;78.60
64987;DHT22;67903;52.108;9.358;2023-03-13T09:52:18;12.50;78.90
64987;DHT22;67903;52.108;9.358;2023-03-13T09:57:51;12.50;78.40
64987;DHT22;67903;52.108;9.358;2023-03-13T10:00:25;12.70;77.60
64987;DHT22;67903;52.108;9.358;2023-03-13T10:03:07;12.80;77.60
64987;DHT22;67903;52.108;9.358;2023-03-13T10:06:00;12.80;77.50
64987;DHT22;67903;52.108;9.358;2023-03-13T10:08:32;12.80;77.70
64987;DHT22;67903;52.108;9.358;2023-03-13T10:11:17;12.70;78.20
64987;DHT22;67903;52.108;9.358;2023-03-13T10:16:53;12.50;79.10
64987;DHT22;67903;52.108;9.358;2023-03-13T10:19:34;12.50;79.90
64987;DHT22;67903;52.108;9.358;2023-03-13T10:22:12;12.40;80.30
64987;DHT22;67903;52.108;9.358;2023-03-13T10:25:24;12.30;81.00
64987;DHT22;67903;52.108;9.358;2023-03-13T10:27:52;12.30;81.30
64987;DHT22;67903;52.108;9.358;2023-03-13T10:30:24;12.20;82.10
64987;DHT22;67903;52.108;9.358;2023-03-13T10:35:41;12.40;81.90
64987;DHT22;67903;52.108;9.358;2023-03-13T10:38:13;12.70;80.70
64987;DHT22;67903;52.108;9.358;2023-03-13T10:40:40;12.80;80.30
64987;DHT22;67903;52.108;9.358;2023-03-13T10:43:18;13.00;79.60
64987;DHT22;67903;52.108;9.358;2023-03-13T10:45:48;13.20;78.90
64987;DHT22;67903;52.108;9.358;2023-03-13T10:48:19;13.30;78.50
64987;DHT22;67903;52.108;9.358;2023-03-13T10:50:48;13.50;77.90
64987;DHT22;67903;52.108;9.358;2023-03-13T10:58:33;13.90;76.00
64987;DHT22;67903;52.108;9.358;2023-03-13T11:01:25;13.90;75.70
64987;DHT22;67903;52.108;9.358;2023-03-13T11:03:54;13.90;76.00
64987;DHT22;67903;52.108;9.358;2023-03-13T11:06:27;13.80;75.70
64987;DHT22;67903;52.108;9.358;2023-03-13T11:09:13;13.80;75.00
64987;DHT22;67903;52.108;9.358;2023-03-13T11:11:55;13.70;74.70
64987;DHT22;67903;52.108;9.358;2023-03-13T11:14:24;13.70;75.20
64987;DHT22;67903;52.108;9.358;2023-03-13T11:19:39;14.10;74.20
64987;DHT22;67903;52.108;9.358;2023-03-13T11:25:09;14.40;72.90
64987;DHT22;67903;52.108;9.358;2023-03-13T11:27:50;14.50;71.70
64987;DHT22;67903;52.108;9.358;2023-03-13T11:30:44;14.50;71.40
64987;DHT22;67903;52.108;9.358;2023-03-13T11:33:34;14.60;71.20
64987;DHT22;67903;52.108;9.358;2023-03-13T11:38:39;14.70;70.80
64987;DHT22;67903;52.108;9.358;2023-03-13T11:41:22;14.70;71.30
64987;DHT22;67903;52.108;9.358;2023-03-13T11:44:36;14.80;71.10
64987;DHT22;67903;52.108;9.358;2023-03-13T11:49:44;14.70;71.40
64987;DHT22;67903;52.108;9.358;2023-03-13T11:52:37;14.90;70.80
64987;DHT22;67903;52.108;9.358;2023-03-13T11:55:26;15.10;70.10
64987;DHT22;67903;52.108;9.358;2023-03-13T11:58:21;15.30;69.70
64987;DHT22;67903;52.108;9.358;2023-03-13T12:01:02;15.40;69.50
64987;DHT22;67903;52.108;9.358;2023-03-13T12:03:41;15.40;68.50
64987;DHT22;67903;52.108;9.358;2023-03-13T12:09:02;15.00;69.10
64987;DHT22;67903;52.108;9.358;2023-03-13T12:11:32;14.90;70.00
64987;DHT22;67903;52.108;9.358;2023-03-13T12:14:05;14.80;70.20
64987;DHT22;67903;52.108;9.358;2023-03-13T12:16:48;15.00;70.10
64987;DHT22;67903;52.108;9.358;2023-03-13T12:22:39;15.00;69.30
64987;DHT22;67903;52.108;9.358;2023-03-13T12:25:29;15.20;68.60
64987;DHT22;67903;52.108;9.358;2023-03-13T12:28:10;15.40;69.00
64987;DHT22;67903;52.108;9.358;2023-03-13T12:30:55;15.50;69.00
64987;DHT22;67903;52.108;9.358;2023-03-13T12:33:33;15.70;67.20
64987;DHT22;67903;52.108;9.358;2023-03-13T12:36:06;15.80;66.20
64987;DHT22;67903;52.108;9.358;2023-03-13T12:38:45;15.60;65.80
64987;DHT22;67903;52.108;9.358;2023-03-13T12:43:49;15.60;64.60
64987;DHT22;67903;52.108;9.358;2023-03-13T12:46:45;15.50;64.80
64987;DHT22;67903;52.108;9.358;2023-03-13T12:55:20;15.80;64.30
64987;DHT22;67903;52.108;9.358;2023-03-13T12:58:17;15.80;64.30
64987;DHT22;67903;52.108;9.358;2023-03-13T13:00:48;16.00;64.40
64987;DHT22;67903;52.108;9.358;2023-03-13T13:03:27;16.10;64.10
64987;DHT22;67903;52.108;9.358;2023-03-13T13:08:42;16.20;62.90
64987;DHT22;67903;52.108;9.358;2023-03-13T13:16:47;16.20;59.50
64987;DHT22;67903;52.108;9.358;2023-03-13T13:27:44;16.50;59.80
64987;DHT22;67903;52.108;9.358;2023-03-13T13:35:44;16.60;60.60
64987;DHT22;67903;52.108;9.358;2023-03-13T13:40:59;16.40;61.30
64987;DHT22;67903;52.108;9.358;2023-03-13T13:43:33;16.60;61.10
64987;DHT22;67903;52.108;9.358;2023-03-13T13:48:38;16.90;59.50
64987;DHT22;67903;52.108;9.358;2023-03-13T13:59:42;17.20;59.10
64987;DHT22;67903;52.108;9.358;2023-03-13T14:01:43;17.10;59.50
64987;DHT22;67903;52.108;9.358;2023-03-13T14:04:29;17.20;59.60
64987;DHT22;67903;52.108;9.358;2023-03-13T14:07:01;17.20;60.10
64987;DHT22;67903;52.108;9.358;2023-03-13T14:12:24;16.70;60.70
64987;DHT22;67903;52.108;9.358;2023-03-13T14:15:17;16.50;61.00
64987;DHT22;67903;52.108;9.358;2023-03-13T14:17:53;16.40;61.80
64987;DHT22;67903;52.108;9.358;2023-03-13T14:20:28;16.20;62.20
64987;DHT22;67903;52.108;9.358;2023-03-13T14:23:01;16.30;61.90
64987;DHT22;67903;52.108;9.358;2023-03-13T14:25:40;16.30;60.90
64987;DHT22;67903;52.108;9.358;2023-03-13T14:28:16;16.30;61.20
64987;DHT22;67903;52.108;9.358;2023-03-13T14:30:44;16.30;61.40
64987;DHT22;67903;52.108;9.358;2023-03-13T14:33:11;16.40;61.30
64987;DHT22;67903;52.108;9.358;2023-03-13T14:35:39;16.40;61.70
64987;DHT22;67903;52.108;9.358;2023-03-13T14:38:14;16.40;61.50
64987;DHT22;67903;52.108;9.358;2023-03-13T14:40:41;16.40;61.30
64987;DHT22;67903;52.108;9.358;2023-03-13T14:43:26;16.40;61.30
64987;DHT22;67903;52.108;9.358;2023-03-13T14:45:54;16.20;61.30
64987;DHT22;67903;52.108;9.358;2023-03-13T14:48:32;16.20;61.70
64987;DHT22;67903;52.108;9.358;2023-03-13T14:51:14;16.10;61.60
64987;DHT22;67903;52.108;9.358;2023-03-13T14:53:59;16.00;62.30
64987;DHT22;67903;52.108;9.358;2023-03-13T14:56:37;16.00;62.00
64987;DHT22;67903;52.108;9.358;2023-03-13T14:59:21;16.00;61.30
64987;DHT22;67903;52.108;9.358;2023-03-13T15:02:14;16.00;61.50
64987;DHT22;67903;52.108;9.358;2023-03-13T15:05:03;16.10;61.30
64987;DHT22;67903;52.108;9.358;2023-03-13T15:10:24;16.10;60.90
64987;DHT22;67903;52.108;9.358;2023-03-13T15:12:51;16.10;61.10
64987;DHT22;67903;52.108;9.358;2023-03-13T15:15:18;16.10;60.70
64987;DHT22;67903;52.108;9.358;2023-03-13T15:17:45;16.00;61.10
64987;DHT22;67903;52.108;9.358;2023-03-13T15:20:13;16.10;60.90
64987;DHT22;67903;52.108;9.358;2023-03-13T15:22:43;16.10;60.90
64987;DHT22;67903;52.108;9.358;2023-03-13T15:25:19;16.20;60.30
64987;DHT22;67903;52.108;9.358;2023-03-13T15:27:47;16.10;60.40
64987;DHT22;67903;52.108;9.358;2023-03-13T15:30:19;16.10;60.50
64987;DHT22;67903;52.108;9.358;2023-03-13T15:32:48;16.10;60.70
64987;DHT22;67903;52.108;9.358;2023-03-13T15:35:28;16.10;60.90
64987;DHT22;67903;52.108;9.358;2023-03-13T15:37:56;16.20;60.70
64987;DHT22;67903;52.108;9.358;2023-03-13T15:40:25;16.10;60.40
64987;DHT22;67903;52.108;9.358;2023-03-13T15:42:53;16.20;60.00
64987;DHT22;67903;52.108;9.358;2023-03-13T15:45:21;16.20;59.80
64987;DHT22;67903;52.108;9.358;2023-03-13T15:47:48;16.10;60.20
64987;DHT22;67903;52.108;9.358;2023-03-13T15:50:18;16.10;60.10
64987;DHT22;67903;52.108;9.358;2023-03-13T15:52:45;16.00;60.80
64987;DHT22;67903;52.108;9.358;2023-03-13T15:55:12;16.00;60.90
64987;DHT22;67903;52.108;9.358;2023-03-13T15:57:48;16.00;61.40
64987;DHT22;67903;52.108;9.358;2023-03-13T16:00:22;16.00;61.40
64987;DHT22;67903;52.108;9.358;2023-03-13T16:02:49;16.00;61.40
64987;DHT22;67903;52.108;9.358;2023-03-13T16:05:16;15.80;60.90
64987;DHT22;67903;52.108;9.358;2023-03-13T16:07:43;15.80;61.00
64987;DHT22;67903;52.108;9.358;2023-03-13T16:10:16;15.80;61.50
64987;DHT22;67903;52.108;9.358;2023-03-13T16:12:43;15.70;61.70
64987;DHT22;67903;52.108;9.358;2023-03-13T16:15:10;15.60;61.80
64987;DHT22;67903;52.108;9.358;2023-03-13T16:17:37;15.60;62.40
64987;DHT22;67903;52.108;9.358;2023-03-13T16:20:14;15.50;62.60
64987;DHT22;67903;52.108;9.358;2023-03-13T16:22:42;15.50;62.30
64987;DHT22;67903;52.108;9.358;2023-03-13T16:25:11;15.40;62.70
64987;DHT22;67903;52.108;9.358;2023-03-13T16:27:38;15.30;63.10
64987;DHT22;67903;52.108;9.358;2023-03-13T16:30:17;15.30;63.30
64987;DHT22;67903;52.108;9.358;2023-03-13T16:32:44;15.30;62.70
64987;DHT22;67903;52.108;9.358;2023-03-13T16:35:11;15.30;62.90
64987;DHT22;67903;52.108;9.358;2023-03-13T16:37:39;15.30;62.80
64987;DHT22;67903;52.108;9.358;2023-03-13T16:40:14;15.30;63.40
64987;DHT22;67903;52.108;9.358;2023-03-13T16:42:42;15.10;64.30
64987;DHT22;67903;52.108;9.358;2023-03-13T16:45:10;15.00;64.90
64987;DHT22;67903;52.108;9.358;2023-03-13T16:47:37;15.00;64.80
64987;DHT22;67903;52.108;9.358;2023-03-13T16:50:32;15.00;65.10
64987;DHT22;67903;52.108;9.358;2023-03-13T16:53:00;15.00;65.50
64987;DHT22;67903;52.108;9.358;2023-03-13T16:55:27;14.90;66.10
64987;DHT22;67903;52.108;9.358;2023-03-13T16:57:56;14.80;66.50
64987;DHT22;67903;52.108;9.358;2023-03-13T17:00:25;14.70;66.90
64987;DHT22;67903;52.108;9.358;2023-03-13T17:02:52;14.70;67.20
64987;DHT22;67903;52.108;9.358;2023-03-13T17:05:20;14.70;67.30
64987;DHT22;67903;52.108;9.358;2023-03-13T17:07:49;14.60;67.60
64987;DHT22;67903;52.108;9.358;2023-03-13T17:12:42;14.50;68.30
64987;DHT22;67903;52.108;9.358;2023-03-13T17:15:09;14.50;68.20
64987;DHT22;67903;52.108;9.358;2023-03-13T17:17:37;14.50;68.50
64987;DHT22;67903;52.108;9.358;2023-03-13T17:20:04;14.40;68.60
64987;DHT22;67903;52.108;9.358;2023-03-13T17:22:32;14.50;68.60
64987;DHT22;67903;52.108;9.358;2023-03-13T17:24:58;14.40;68.80
64987;DHT22;67903;52.108;9.358;2023-03-13T17:27:25;14.20;69.50
64987;DHT22;67903;52.108;9.358;2023-03-13T17:29:52;14.10;69.60
64987;DHT22;67903;52.108;9.358;2023-03-13T17:32:19;13.90;70.30
64987;DHT22;67903;52.108;9.358;2023-03-13T17:34:45;13.90;70.50
64987;DHT22;67903;52.108;9.358;2023-03-13T17:37:14;13.70;70.70
64987;DHT22;67903;52.108;9.358;2023-03-13T17:39:42;13.80;69.90